createdAt,value
2018-07-22T00:00:36.065Z,0
2018-07-22T00:01:16.559Z,0
2018-07-22T00:01:57.050Z,0
2018-07-22T00:02:37.551Z,0
2018-07-22T00:03:18.044Z,0
2018-07-22T00:03:58.516Z,0
2018-07-22T00:04:39.043Z,0
2018-07-22T00:05:19.600Z,0
2018-07-22T00:06:00.063Z,0
2018-07-22T00:06:40.519Z,0
2018-07-22T00:07:20.999Z,0
2018-07-22T00:08:01.526Z,0
2018-07-22T00:08:41.985Z,0
2018-07-22T00:09:22.483Z,0
2018-07-22T00:10:03.023Z,0
2018-07-22T00:10:43.520Z,0
2018-07-22T00:11:23.981Z,0
2018-07-22T00:12:04.505Z,0
2018-07-22T00:12:44.983Z,0
2018-07-22T00:13:25.509Z,0
2018-07-22T00:14:06.047Z,0
2018-07-22T00:14:46.555Z,0
2018-07-22T00:15:27.079Z,0
2018-07-22T00:16:07.627Z,0
2018-07-22T00:16:48.140Z,0
2018-07-22T00:17:28.642Z,0
2018-07-22T00:18:09.170Z,0
2018-07-22T00:18:49.710Z,0
2018-07-22T00:19:30.217Z,0
2018-07-22T00:20:10.723Z,0
2018-07-22T00:20:51.230Z,0
2018-07-22T00:21:31.744Z,0
2018-07-22T00:22:12.268Z,0
2018-07-22T00:22:52.782Z,0
2018-07-22T00:23:33.321Z,0
2018-07-22T00:24:13.852Z,0
2018-07-22T00:24:54.365Z,0
2018-07-22T00:25:34.886Z,0
2018-07-22T00:26:15.365Z,0
2018-07-22T00:26:55.884Z,0
2018-07-22T00:27:36.450Z,0
2018-07-22T00:28:16.979Z,0
2018-07-22T00:28:57.490Z,0
2018-07-22T00:29:38.013Z,0
2018-07-22T00:30:18.536Z,0
2018-07-22T00:30:59.030Z,0
2018-07-22T00:31:39.566Z,0
2018-07-22T00:32:20.093Z,0
2018-07-22T00:33:00.613Z,0
2018-07-22T00:33:41.139Z,0
2018-07-22T00:34:21.689Z,0
2018-07-22T00:35:02.152Z,0
2018-07-22T00:35:42.656Z,0
2018-07-22T00:36:23.172Z,0
2018-07-22T00:37:03.687Z,0
2018-07-22T00:37:44.195Z,0
2018-07-22T00:38:24.701Z,0
2018-07-22T00:39:05.219Z,0
2018-07-22T00:39:45.728Z,0
2018-07-22T00:40:26.262Z,0
2018-07-22T00:41:06.789Z,0
2018-07-22T00:41:47.298Z,0
2018-07-22T00:42:27.807Z,0
2018-07-22T00:43:08.345Z,0
2018-07-22T00:43:48.815Z,0
2018-07-22T00:44:29.341Z,0
2018-07-22T00:45:09.871Z,0
2018-07-22T00:45:50.382Z,0
2018-07-22T00:46:30.867Z,0
2018-07-22T00:47:11.403Z,0
2018-07-22T00:47:51.937Z,0
2018-07-22T00:48:32.421Z,0
2018-07-22T00:49:12.926Z,0
2018-07-22T00:49:53.448Z,0
2018-07-22T00:50:33.954Z,0
2018-07-22T00:51:14.477Z,0
2018-07-22T00:51:54.996Z,0
2018-07-22T00:52:35.511Z,0
2018-07-22T00:53:16.058Z,0
2018-07-22T00:53:56.575Z,0
2018-07-22T00:54:37.085Z,0
2018-07-22T00:55:17.595Z,0
2018-07-22T00:55:58.116Z,0
2018-07-22T00:56:38.627Z,0
2018-07-22T00:57:19.133Z,0
2018-07-22T00:57:59.599Z,0
2018-07-22T00:58:40.110Z,0
2018-07-22T00:59:20.630Z,0
2018-07-22T01:00:01.104Z,0
2018-07-22T01:00:41.618Z,0
2018-07-22T01:01:22.123Z,0
2018-07-22T01:02:02.618Z,0
2018-07-22T01:02:43.141Z,0
2018-07-22T01:03:23.663Z,0
2018-07-22T01:04:04.160Z,0
2018-07-22T01:04:44.680Z,0
2018-07-22T01:05:25.204Z,0
2018-07-22T01:06:05.720Z,0
2018-07-22T01:06:46.236Z,0
2018-07-22T01:07:26.801Z,0
2018-07-22T01:08:07.287Z,0
2018-07-22T01:08:47.803Z,0
2018-07-22T01:09:28.370Z,0
2018-07-22T01:10:08.886Z,0
2018-07-22T01:10:49.414Z,0
2018-07-22T01:11:29.912Z,0
2018-07-22T01:12:10.439Z,0
2018-07-22T01:12:50.915Z,0
2018-07-22T01:13:31.431Z,0
2018-07-22T01:14:11.961Z,0
2018-07-22T01:14:52.471Z,0
2018-07-22T01:15:32.986Z,0
2018-07-22T01:16:13.518Z,0
2018-07-22T01:16:54.034Z,0
2018-07-22T01:17:34.522Z,0
2018-07-22T01:18:15.036Z,0
2018-07-22T01:18:55.694Z,0
2018-07-22T01:19:36.211Z,0
2018-07-22T01:20:16.691Z,0
2018-07-22T01:20:57.182Z,0
2018-07-22T01:21:37.688Z,0
2018-07-22T01:22:18.198Z,0
2018-07-22T01:22:58.747Z,0
2018-07-22T01:23:39.283Z,0
2018-07-22T01:24:19.809Z,0
2018-07-22T01:25:00.319Z,0
2018-07-22T01:25:40.840Z,0
2018-07-22T01:26:21.370Z,0
2018-07-22T01:27:01.889Z,0
2018-07-22T01:27:42.390Z,0
2018-07-22T01:28:22.891Z,0
2018-07-22T01:29:03.415Z,0
2018-07-22T01:29:43.914Z,0
2018-07-22T01:30:24.377Z,0
2018-07-22T01:31:04.867Z,0
2018-07-22T01:31:45.396Z,0
2018-07-22T01:32:25.888Z,0
2018-07-22T01:33:06.375Z,0
2018-07-22T01:33:46.859Z,0
2018-07-22T01:34:27.377Z,0
2018-07-22T01:35:07.884Z,0
2018-07-22T01:35:48.424Z,0
2018-07-22T01:36:28.937Z,0
2018-07-22T01:37:09.434Z,0
2018-07-22T01:37:49.931Z,0
2018-07-22T01:38:30.469Z,0
2018-07-22T01:39:10.948Z,0
2018-07-22T01:39:51.441Z,0
2018-07-22T01:40:31.896Z,0
2018-07-22T01:41:12.474Z,0
2018-07-22T01:41:52.917Z,0
2018-07-22T01:42:33.457Z,0
2018-07-22T01:43:13.956Z,0
2018-07-22T01:43:54.500Z,0
2018-07-22T01:44:34.998Z,0
2018-07-22T01:45:15.557Z,0
2018-07-22T01:45:56.241Z,0
2018-07-22T01:46:36.749Z,0
2018-07-22T01:47:17.201Z,0
2018-07-22T01:47:57.744Z,0
2018-07-22T01:48:38.192Z,0
2018-07-22T01:49:18.706Z,0
2018-07-22T01:49:59.167Z,0
2018-07-22T01:50:39.683Z,0
2018-07-22T01:51:20.133Z,0
2018-07-22T01:52:00.656Z,0
2018-07-22T01:52:41.179Z,0
2018-07-22T01:53:21.637Z,0
2018-07-22T01:54:02.157Z,0
2018-07-22T01:54:42.669Z,0
2018-07-22T01:55:23.189Z,0
2018-07-22T01:56:03.711Z,0
2018-07-22T01:56:44.220Z,0
2018-07-22T01:57:24.761Z,0
2018-07-22T01:58:05.288Z,0
2018-07-22T01:58:45.803Z,0
2018-07-22T01:59:26.318Z,0
2018-07-22T02:00:06.849Z,0
2018-07-22T02:00:47.341Z,0
2018-07-22T02:01:27.870Z,0
2018-07-22T02:02:08.412Z,0
2018-07-22T02:02:48.932Z,0
2018-07-22T02:03:29.431Z,0
2018-07-22T02:04:09.976Z,0
2018-07-22T02:04:50.511Z,0
2018-07-22T02:05:31.031Z,0
2018-07-22T02:06:11.532Z,0
2018-07-22T02:06:52.046Z,0
2018-07-22T02:07:32.576Z,0
2018-07-22T02:08:13.094Z,0
2018-07-22T02:08:53.602Z,0
2018-07-22T02:09:34.129Z,0
2018-07-22T02:10:14.641Z,0
2018-07-22T02:10:55.128Z,0
2018-07-22T02:11:35.644Z,0
2018-07-22T02:12:16.116Z,0
2018-07-22T02:12:56.596Z,0
2018-07-22T02:13:37.086Z,0
2018-07-22T02:14:17.629Z,0
2018-07-22T02:14:58.159Z,0
2018-07-22T02:15:38.673Z,0
2018-07-22T02:16:19.156Z,0
2018-07-22T02:16:59.693Z,0
2018-07-22T02:17:40.178Z,0
2018-07-22T02:18:20.682Z,0
2018-07-22T02:19:01.205Z,0
2018-07-22T02:19:41.680Z,0
2018-07-22T02:20:22.154Z,0
2018-07-22T02:21:02.632Z,0
2018-07-22T02:21:43.140Z,0
2018-07-22T02:22:23.690Z,0
2018-07-22T02:23:04.162Z,0
2018-07-22T02:23:44.669Z,0
2018-07-22T02:24:25.125Z,0
2018-07-22T02:25:05.629Z,0
2018-07-22T02:25:46.154Z,0
2018-07-22T02:26:26.675Z,0
2018-07-22T02:27:07.156Z,0
2018-07-22T02:27:47.638Z,0
2018-07-22T02:28:28.132Z,0
2018-07-22T02:29:08.679Z,0
2018-07-22T02:29:49.146Z,0
2018-07-22T02:30:29.624Z,0
2018-07-22T02:31:10.134Z,0
2018-07-22T02:31:50.620Z,0
2018-07-22T02:32:31.114Z,0
2018-07-22T02:33:11.610Z,0
2018-07-22T02:33:52.116Z,0
2018-07-22T02:34:32.577Z,0
2018-07-22T02:35:13.070Z,0
2018-07-22T02:35:53.527Z,0
2018-07-22T02:36:34.070Z,0
2018-07-22T02:37:14.582Z,0
2018-07-22T02:37:55.071Z,0
2018-07-22T02:38:35.599Z,0
2018-07-22T02:39:16.066Z,0
2018-07-22T02:39:56.635Z,0
2018-07-22T02:40:37.090Z,0
2018-07-22T02:41:17.616Z,0
2018-07-22T02:41:58.122Z,0
2018-07-22T02:42:38.619Z,0
2018-07-22T02:43:19.186Z,0
2018-07-22T02:43:59.640Z,0
2018-07-22T02:44:41.171Z,0
2018-07-22T02:45:21.606Z,0
2018-07-22T02:46:02.121Z,0
2018-07-22T02:46:42.609Z,0
2018-07-22T02:47:23.113Z,0
2018-07-22T02:48:03.609Z,0
2018-07-22T02:48:44.070Z,0
2018-07-22T02:49:24.557Z,0
2018-07-22T02:50:05.113Z,0
2018-07-22T02:50:45.582Z,0
2018-07-22T02:51:26.088Z,0
2018-07-22T02:52:06.585Z,0
2018-07-22T02:52:47.043Z,0
2018-07-22T02:53:27.493Z,0
2018-07-22T02:54:08.058Z,0
2018-07-22T02:54:48.524Z,0
2018-07-22T02:57:16.987Z,0
2018-07-22T02:57:57.518Z,0
2018-07-22T02:58:38.028Z,0
2018-07-22T02:59:18.582Z,0
2018-07-22T02:59:59.100Z,0
2018-07-22T03:00:39.618Z,0
2018-07-22T03:01:20.142Z,0
2018-07-22T03:02:00.652Z,0
2018-07-22T03:02:41.183Z,0
2018-07-22T03:03:21.731Z,0
2018-07-22T03:04:02.180Z,0
2018-07-22T03:04:42.737Z,0
2018-07-22T03:05:23.201Z,0
2018-07-22T03:06:03.678Z,0
2018-07-22T03:06:44.185Z,0
2018-07-22T03:07:24.678Z,0
2018-07-22T03:08:05.202Z,0
2018-07-22T03:08:45.642Z,0
2018-07-22T03:09:26.142Z,0
2018-07-22T03:10:06.621Z,0
2018-07-22T03:10:47.134Z,0
2018-07-22T03:11:27.620Z,0
2018-07-22T03:12:08.100Z,0
2018-07-22T03:12:48.628Z,0
2018-07-22T03:13:29.077Z,0
2018-07-22T03:14:09.651Z,0
2018-07-22T03:14:50.064Z,0
2018-07-22T03:15:30.558Z,0
2018-07-22T03:16:11.058Z,0
2018-07-22T03:16:51.566Z,0
2018-07-22T03:17:32.071Z,0
2018-07-22T03:18:12.565Z,0
2018-07-22T03:18:53.041Z,0
2018-07-22T03:19:33.554Z,0
2018-07-22T03:20:14.020Z,0
2018-07-22T03:20:54.523Z,0
2018-07-22T03:21:35.169Z,0
2018-07-22T03:22:15.687Z,0
2018-07-22T03:22:56.202Z,0
2018-07-22T03:23:36.791Z,0
2018-07-22T03:24:17.313Z,0
2018-07-22T03:24:57.824Z,0
2018-07-22T03:25:38.334Z,0
2018-07-22T03:26:19.025Z,0
2018-07-22T03:26:59.379Z,0
2018-07-22T03:27:39.925Z,0
2018-07-22T03:28:20.450Z,0
2018-07-22T03:29:00.973Z,0
2018-07-22T03:29:41.498Z,0
2018-07-22T03:30:22.005Z,0
2018-07-22T03:31:02.511Z,0
2018-07-22T03:31:43.049Z,0
2018-07-22T03:32:23.548Z,0
2018-07-22T03:33:04.027Z,0
2018-07-22T03:33:44.509Z,0
2018-07-22T03:34:25.089Z,0
2018-07-22T03:35:05.623Z,0
2018-07-22T03:35:46.058Z,0
2018-07-22T03:36:26.553Z,0
2018-07-22T03:37:07.035Z,0
2018-07-22T03:37:47.528Z,0
2018-07-22T03:38:28.041Z,0
2018-07-22T03:39:08.530Z,0
2018-07-22T03:39:49.041Z,0
2018-07-22T03:40:29.562Z,0
2018-07-22T03:41:10.060Z,0
2018-07-22T03:41:50.597Z,0
2018-07-22T03:42:31.111Z,0
2018-07-22T03:43:11.659Z,0
2018-07-22T03:43:52.181Z,0
2018-07-22T03:44:32.683Z,0
2018-07-22T03:45:13.191Z,0
2018-07-22T03:45:53.699Z,0
2018-07-22T03:46:34.205Z,0
2018-07-22T03:47:14.722Z,0
2018-07-22T03:47:55.211Z,0
2018-07-22T03:48:35.708Z,0
2018-07-22T03:49:16.204Z,0
2018-07-22T03:49:56.692Z,0
2018-07-22T03:50:37.209Z,0
2018-07-22T03:51:17.745Z,0
2018-07-22T03:51:58.266Z,0
2018-07-22T03:52:38.739Z,0
2018-07-22T03:53:19.247Z,0
2018-07-22T03:53:59.717Z,0
2018-07-22T03:54:40.228Z,0
2018-07-22T03:55:20.757Z,0
2018-07-22T03:56:01.304Z,0
2018-07-22T03:56:41.757Z,0
2018-07-22T03:57:22.276Z,0
2018-07-22T03:58:02.795Z,0
2018-07-22T03:58:43.253Z,0
2018-07-22T03:59:23.793Z,0
2018-07-22T04:00:04.272Z,0
2018-07-22T04:00:44.811Z,0
2018-07-22T04:01:25.295Z,0
2018-07-22T04:02:05.808Z,0
2018-07-22T04:02:46.332Z,0
2018-07-22T04:03:26.799Z,0
2018-07-22T04:04:07.285Z,0
2018-07-22T04:04:47.769Z,5
2018-07-22T04:05:28.290Z,5
2018-07-22T04:06:08.845Z,5
2018-07-22T04:06:49.296Z,5
2018-07-22T04:07:29.809Z,5
2018-07-22T04:08:10.329Z,5
2018-07-22T04:08:50.792Z,5
2018-07-22T04:09:31.255Z,5
2018-07-22T04:10:11.731Z,5
2018-07-22T04:10:52.224Z,5
2018-07-22T04:11:32.741Z,5
2018-07-22T04:12:13.234Z,5
2018-07-22T04:12:53.732Z,5
2018-07-22T04:13:34.251Z,5
2018-07-22T04:14:14.801Z,5
2018-07-22T04:14:55.289Z,5
2018-07-22T04:15:35.770Z,5
2018-07-22T04:16:16.317Z,5
2018-07-22T04:16:56.845Z,5
2018-07-22T04:17:37.381Z,5
2018-07-22T04:18:17.851Z,10
2018-07-22T04:19:00.186Z,10
2018-07-22T04:19:40.688Z,10
2018-07-22T04:20:21.207Z,10
2018-07-22T04:21:01.717Z,10
2018-07-22T04:21:42.254Z,10
2018-07-22T04:22:22.745Z,10
2018-07-22T04:23:03.283Z,10
2018-07-22T04:23:43.729Z,10
2018-07-22T04:24:24.239Z,10
2018-07-22T04:25:04.766Z,10
2018-07-22T04:25:45.243Z,10
2018-07-22T04:26:25.709Z,10
2018-07-22T04:27:06.217Z,10
2018-07-22T04:27:46.696Z,10
2018-07-22T04:28:27.214Z,10
2018-07-22T04:29:07.722Z,10
2018-07-22T04:29:48.239Z,10
2018-07-22T04:30:28.795Z,10
2018-07-22T04:31:09.338Z,10
2018-07-22T04:31:49.844Z,10
2018-07-22T04:32:30.339Z,10
2018-07-22T04:33:10.838Z,10
2018-07-22T04:33:51.374Z,10
2018-07-22T04:34:31.871Z,10
2018-07-22T04:35:12.411Z,10
2018-07-22T04:35:52.871Z,10
2018-07-22T04:36:33.367Z,10
2018-07-22T04:37:13.851Z,10
2018-07-22T04:37:54.372Z,10
2018-07-22T04:38:34.865Z,15
2018-07-22T04:39:15.336Z,15
2018-07-22T04:39:55.835Z,15
2018-07-22T04:40:36.353Z,15
2018-07-22T04:41:16.887Z,15
2018-07-22T04:41:57.368Z,15
2018-07-22T04:42:37.873Z,15
2018-07-22T04:43:18.343Z,15
2018-07-22T04:43:58.860Z,15
2018-07-22T04:44:39.363Z,15
2018-07-22T04:45:19.869Z,15
2018-07-22T04:46:00.367Z,15
2018-07-22T04:46:40.871Z,15
2018-07-22T04:47:21.397Z,15
2018-07-22T04:48:01.898Z,15
2018-07-22T04:48:42.461Z,20
2018-07-22T04:49:22.966Z,20
2018-07-22T04:50:03.450Z,20
2018-07-22T04:50:44.002Z,20
2018-07-22T04:51:24.507Z,20
2018-07-22T04:52:04.984Z,20
2018-07-22T04:52:45.491Z,20
2018-07-22T04:53:25.999Z,20
2018-07-22T04:54:06.535Z,20
2018-07-22T04:54:47.055Z,25
2018-07-22T04:55:27.560Z,25
2018-07-22T04:56:08.105Z,25
2018-07-22T04:56:48.568Z,25
2018-07-22T04:57:29.074Z,25
2018-07-22T04:58:09.585Z,25
2018-07-22T04:58:50.093Z,25
2018-07-22T04:59:30.598Z,25
2018-07-22T05:00:11.095Z,30
2018-07-22T05:00:51.600Z,30
2018-07-22T05:01:32.105Z,30
2018-07-22T05:02:12.605Z,30
2018-07-22T05:02:53.112Z,30
2018-07-22T05:03:33.691Z,30
2018-07-22T05:04:14.137Z,30
2018-07-22T05:04:54.617Z,35
2018-07-22T05:05:35.101Z,35
2018-07-22T05:06:15.612Z,35
2018-07-22T05:06:56.121Z,35
2018-07-22T05:07:36.651Z,35
2018-07-22T05:08:17.163Z,35
2018-07-22T05:08:57.693Z,35
2018-07-22T05:09:38.183Z,35
2018-07-22T05:10:18.676Z,35
2018-07-22T05:10:59.182Z,35
2018-07-22T05:11:39.708Z,35
2018-07-22T05:12:20.183Z,35
2018-07-22T05:13:00.688Z,35
2018-07-22T05:13:41.222Z,35
2018-07-22T05:14:21.715Z,35
2018-07-22T05:15:02.223Z,35
2018-07-22T05:15:42.755Z,35
2018-07-22T05:16:23.268Z,35
2018-07-22T05:17:03.725Z,35
2018-07-22T05:17:44.250Z,35
2018-07-22T05:18:24.745Z,35
2018-07-22T05:19:05.275Z,35
2018-07-22T05:19:45.768Z,35
2018-07-22T05:20:26.275Z,35
2018-07-22T05:21:06.815Z,35
2018-07-22T05:21:47.277Z,35
2018-07-22T05:22:27.819Z,35
2018-07-22T05:23:08.279Z,35
2018-07-22T05:23:48.800Z,35
2018-07-22T05:24:29.293Z,35
2018-07-22T05:25:09.793Z,35
2018-07-22T05:25:50.244Z,35
2018-07-22T05:26:30.760Z,35
2018-07-22T05:27:11.271Z,35
2018-07-22T05:27:51.917Z,35
2018-07-22T05:28:32.430Z,35
2018-07-22T05:29:12.929Z,35
2018-07-22T05:29:53.651Z,35
2018-07-22T05:30:34.172Z,35
2018-07-22T05:31:14.687Z,35
2018-07-22T05:31:55.164Z,35
2018-07-22T05:32:35.649Z,35
2018-07-22T05:33:16.199Z,35
2018-07-22T05:33:56.747Z,35
2018-07-22T05:34:37.204Z,35
2018-07-22T05:35:17.767Z,35
2018-07-22T05:35:58.255Z,35
2018-07-22T05:36:38.739Z,35
2018-07-22T05:37:19.237Z,35
2018-07-22T05:37:59.779Z,35
2018-07-22T05:38:40.256Z,35
2018-07-22T05:39:20.752Z,35
2018-07-22T05:40:01.240Z,35
2018-07-22T05:40:41.735Z,35
2018-07-22T05:41:22.233Z,35
2018-07-22T05:42:02.760Z,35
2018-07-22T05:42:43.250Z,35
2018-07-22T05:43:23.744Z,35
2018-07-22T05:44:04.357Z,35
2018-07-22T05:44:44.856Z,35
2018-07-22T05:45:25.416Z,35
2018-07-22T05:46:05.879Z,35
2018-07-22T05:46:46.422Z,40
2018-07-22T05:47:26.954Z,40
2018-07-22T05:48:07.408Z,40
2018-07-22T05:48:47.877Z,40
2018-07-22T05:49:28.359Z,40
2018-07-22T05:50:08.926Z,40
2018-07-22T05:50:49.417Z,40
2018-07-22T05:51:29.953Z,40
2018-07-22T05:52:10.388Z,40
2018-07-22T05:52:50.955Z,40
2018-07-22T05:53:31.401Z,40
2018-07-22T05:54:11.869Z,40
2018-07-22T05:54:52.406Z,35
2018-07-22T05:55:32.902Z,35
2018-07-22T05:56:13.374Z,35
2018-07-22T05:56:53.872Z,35
2018-07-22T05:57:34.383Z,35
2018-07-22T05:58:14.909Z,35
2018-07-22T05:58:55.377Z,35
2018-07-22T05:59:35.885Z,35
2018-07-22T06:00:16.390Z,40
2018-07-22T06:00:56.916Z,40
2018-07-22T06:01:37.419Z,40
2018-07-22T06:02:17.940Z,40
2018-07-22T06:02:58.430Z,40
2018-07-22T06:03:38.913Z,40
2018-07-22T06:04:19.419Z,45
2018-07-22T06:04:59.957Z,45
2018-07-22T06:05:40.441Z,45
2018-07-22T06:06:20.976Z,45
2018-07-22T06:07:01.453Z,45
2018-07-22T06:07:41.965Z,45
2018-07-22T06:08:22.491Z,45
2018-07-22T06:09:02.995Z,45
2018-07-22T06:09:43.486Z,50
2018-07-22T06:10:23.982Z,50
2018-07-22T06:11:04.486Z,50
2018-07-22T06:11:45.034Z,55
2018-07-22T06:12:25.487Z,55
2018-07-22T06:13:07.609Z,60
2018-07-22T06:13:48.165Z,60
2018-07-22T06:14:28.679Z,65
2018-07-22T06:15:09.141Z,75
2018-07-22T06:15:49.667Z,70
2018-07-22T06:16:30.127Z,75
2018-07-22T06:17:10.643Z,80
2018-07-22T06:17:51.158Z,80
2018-07-22T06:18:31.648Z,85
2018-07-22T06:19:12.159Z,85
2018-07-22T06:19:52.679Z,90
2018-07-22T06:20:33.184Z,95
2018-07-22T06:21:13.661Z,95
2018-07-22T06:21:54.206Z,95
2018-07-22T06:22:34.717Z,100
2018-07-22T06:23:15.194Z,100
2018-07-22T06:23:55.701Z,105
2018-07-22T06:24:36.204Z,110
2018-07-22T06:25:16.696Z,115
2018-07-22T06:25:57.232Z,115
2018-07-22T06:26:37.765Z,120
2018-07-22T06:27:18.280Z,125
2018-07-22T06:27:58.762Z,130
2018-07-22T06:28:39.268Z,140
2018-07-22T06:29:19.790Z,145
2018-07-22T06:30:00.329Z,150
2018-07-22T06:30:40.844Z,155
2018-07-22T06:31:21.315Z,155
2018-07-22T06:32:02.396Z,160
2018-07-22T06:32:42.981Z,165
2018-07-22T06:33:23.469Z,170
2018-07-22T06:34:03.963Z,175
2018-07-22T06:34:44.518Z,185
2018-07-22T06:35:25.021Z,190
2018-07-22T06:36:05.495Z,195
2018-07-22T06:36:45.985Z,205
2018-07-22T06:37:26.547Z,210
2018-07-22T06:38:07.004Z,215
2018-07-22T06:38:47.775Z,220
2018-07-22T06:39:28.272Z,225
2018-07-22T06:40:08.795Z,230
2018-07-22T06:40:49.281Z,230
2018-07-22T06:41:29.786Z,235
2018-07-22T06:42:10.326Z,240
2018-07-22T06:42:50.820Z,240
2018-07-22T06:43:31.289Z,240
2018-07-22T06:44:11.807Z,240
2018-07-22T06:44:52.346Z,245
2018-07-22T06:45:32.876Z,245
2018-07-22T06:46:13.440Z,250
2018-07-22T06:46:53.972Z,255
2018-07-22T06:47:34.569Z,255
2018-07-22T06:48:14.955Z,260
2018-07-22T06:48:55.466Z,260
2018-07-22T06:49:35.915Z,260
2018-07-22T06:50:16.426Z,260
2018-07-22T06:50:56.941Z,265
2018-07-22T06:51:37.397Z,250
2018-07-22T06:52:17.973Z,240
2018-07-22T06:52:58.434Z,250
2018-07-22T06:53:38.979Z,240
2018-07-22T06:54:19.497Z,250
2018-07-22T06:54:59.930Z,255
2018-07-22T06:55:40.417Z,265
2018-07-22T06:56:20.898Z,275
2018-07-22T06:57:01.418Z,290
2018-07-22T06:57:41.889Z,300
2018-07-22T06:58:22.393Z,330
2018-07-22T06:59:02.885Z,335
2018-07-22T06:59:43.362Z,350
2018-07-22T07:00:23.877Z,345
2018-07-22T07:01:04.349Z,345
2018-07-22T07:01:44.881Z,335
2018-07-22T07:02:25.410Z,345
2018-07-22T07:03:05.884Z,350
2018-07-22T07:03:46.421Z,345
2018-07-22T07:04:26.927Z,345
2018-07-22T07:05:07.459Z,350
2018-07-22T07:05:47.925Z,345
2018-07-22T07:06:28.415Z,345
2018-07-22T07:07:08.941Z,340
2018-07-22T07:07:49.457Z,335
2018-07-22T07:08:29.996Z,335
2018-07-22T07:09:10.733Z,335
2018-07-22T07:09:51.279Z,335
2018-07-22T07:10:31.803Z,335
2018-07-22T07:11:12.274Z,330
2018-07-22T07:11:52.773Z,330
2018-07-22T07:12:33.257Z,325
2018-07-22T07:13:13.764Z,320
2018-07-22T07:13:54.270Z,315
2018-07-22T07:14:34.740Z,305
2018-07-22T07:15:15.222Z,305
2018-07-22T07:15:55.760Z,275
2018-07-22T07:16:36.210Z,255
2018-07-22T07:28:09.360Z,305
2018-07-22T07:28:49.788Z,305
2018-07-22T07:29:30.309Z,300
2018-07-22T07:30:10.833Z,300
2018-07-22T07:30:51.367Z,300
2018-07-22T07:31:31.920Z,305
2018-07-22T07:32:12.433Z,305
2018-07-22T07:32:54.024Z,305
2018-07-22T07:33:34.842Z,305
2018-07-22T07:34:15.248Z,305
2018-07-22T07:34:55.727Z,305
2018-07-22T07:35:36.237Z,310
2018-07-22T07:36:16.743Z,310
2018-07-22T07:36:57.332Z,315
2018-07-22T07:37:37.845Z,305
2018-07-22T07:38:18.346Z,310
2018-07-22T07:38:58.827Z,310
2018-07-22T07:39:39.374Z,305
2018-07-22T07:40:19.905Z,305
2018-07-22T07:41:01.175Z,305
2018-07-22T07:41:44.951Z,305
2018-07-22T07:42:24.158Z,305
2018-07-22T07:43:04.648Z,310
2018-07-22T07:43:46.474Z,315
2018-07-22T07:44:26.983Z,320
2018-07-22T07:45:07.545Z,315
2018-07-22T07:45:47.984Z,330
2018-07-22T07:46:28.590Z,340
2018-07-22T07:47:09.054Z,345
2018-07-22T07:47:49.602Z,345
2018-07-22T07:48:30.075Z,350
2018-07-22T07:49:10.564Z,355
2018-07-22T07:49:51.057Z,360
2018-07-22T07:50:31.557Z,365
2018-07-22T07:51:12.080Z,370
2018-07-22T07:51:52.602Z,375
2018-07-22T07:52:33.118Z,375
2018-07-22T07:53:13.642Z,375
2018-07-22T07:53:54.186Z,375
2018-07-22T07:54:34.702Z,370
2018-07-22T07:55:15.195Z,370
2018-07-22T07:55:55.870Z,370
2018-07-22T07:56:36.242Z,365
2018-07-22T07:57:16.870Z,360
2018-07-22T07:57:57.877Z,345
2018-07-22T07:58:38.484Z,335
2018-07-22T07:59:18.982Z,345
2018-07-22T07:59:59.481Z,340
2018-07-22T08:00:39.983Z,345
2018-07-22T08:01:20.523Z,355
2018-07-22T08:02:01.034Z,335
2018-07-22T08:02:41.584Z,320
2018-07-22T08:03:22.085Z,320
2018-07-22T08:04:02.567Z,315
2018-07-22T08:04:43.952Z,325
2018-07-22T08:05:24.553Z,320
2018-07-22T08:06:05.995Z,305
2018-07-22T08:06:46.566Z,305
2018-07-22T08:07:27.763Z,295
2018-07-22T08:08:08.296Z,280
2018-07-22T08:08:48.913Z,280
2018-07-22T08:09:29.308Z,290
2018-07-22T08:10:09.809Z,305
2018-07-22T08:10:50.346Z,305
2018-07-22T08:11:31.039Z,300
2018-07-22T08:12:11.478Z,285
2018-07-22T08:12:52.020Z,285
2018-07-22T08:13:32.492Z,290
2018-07-22T08:14:13.056Z,290
2018-07-22T08:16:26.379Z,275
2018-07-22T08:17:06.898Z,275
2018-07-22T08:17:47.565Z,280
2018-07-22T08:18:28.111Z,280
2018-07-22T08:19:08.685Z,280
2018-07-22T08:19:49.183Z,275
2018-07-22T08:20:29.647Z,275
2018-07-22T08:21:10.183Z,270
2018-07-22T08:21:50.949Z,270
2018-07-22T08:22:31.347Z,270
2018-07-22T08:23:11.935Z,270
2018-07-22T08:23:52.618Z,270
2018-07-22T08:24:32.985Z,265
2018-07-22T08:25:13.501Z,265
2018-07-22T08:25:53.914Z,270
2018-07-22T08:26:34.506Z,265
2018-07-22T08:27:14.991Z,265
2018-07-22T08:27:56.291Z,265
2018-07-22T08:28:38.637Z,270
2018-07-22T08:29:19.118Z,270
2018-07-22T08:29:59.638Z,255
2018-07-22T08:30:40.147Z,265
2018-07-22T08:33:20.755Z,235
2018-07-22T08:34:06.296Z,235
2018-07-22T08:34:47.393Z,235
2018-07-22T08:35:28.319Z,240
2018-07-22T08:36:09.671Z,235
2018-07-22T08:36:58.211Z,235
2018-07-22T08:37:38.687Z,245
2018-07-22T08:38:19.401Z,240
2018-07-22T08:38:59.911Z,245
2018-07-22T08:41:20.500Z,260
2018-07-22T08:42:01.118Z,265
2018-07-22T08:42:41.980Z,275
2018-07-22T08:43:22.499Z,280
2018-07-22T08:44:03.036Z,285
2018-07-22T08:44:43.549Z,295
2018-07-22T08:45:24.522Z,295
2018-07-22T08:46:05.078Z,300
2018-07-22T08:46:45.571Z,300
2018-07-22T08:47:26.395Z,295
2018-07-22T08:48:06.953Z,285
2018-07-22T08:48:47.464Z,280
2018-07-22T08:49:27.998Z,285
2018-07-22T08:50:08.514Z,295
2018-07-22T08:50:49.120Z,285
2018-07-22T08:51:30.018Z,285
2018-07-22T08:52:12.456Z,285
2018-07-22T08:52:53.130Z,285
2018-07-22T08:53:33.580Z,285
2018-07-22T08:54:14.231Z,300
2018-07-22T08:54:54.767Z,290
2018-07-22T08:55:35.776Z,285
2018-07-22T08:56:16.040Z,270
2018-07-22T08:56:56.510Z,265
2018-07-22T08:57:37.320Z,265
2018-07-22T09:02:03.239Z,285
2018-07-22T09:02:43.978Z,285
2018-07-22T09:03:24.872Z,280
2018-07-22T09:04:05.414Z,275
2018-07-22T09:04:46.228Z,275
2018-07-22T09:05:26.925Z,275
2018-07-22T09:06:15.815Z,275
2018-07-22T09:06:58.535Z,280
2018-07-22T09:07:39.248Z,280
2018-07-22T09:08:19.833Z,280
2018-07-22T09:09:01.891Z,280
2018-07-22T09:09:42.876Z,290
2018-07-22T09:10:42.617Z,295
2018-07-22T09:12:57.389Z,295
2018-07-22T09:13:37.917Z,290
2018-07-22T09:14:21.930Z,290
2018-07-22T09:15:01.673Z,285
2018-07-22T09:15:42.206Z,290
2018-07-22T09:16:22.698Z,290
2018-07-22T09:17:03.430Z,290
2018-07-22T09:20:24.955Z,285
2018-07-22T09:21:05.492Z,285
2018-07-22T09:21:46.016Z,285
2018-07-22T09:22:26.561Z,285
2018-07-22T09:23:07.045Z,290
2018-07-22T09:23:47.574Z,290
2018-07-22T09:24:28.120Z,290
2018-07-22T09:25:09.703Z,290
2018-07-22T09:25:49.807Z,285
2018-07-22T09:26:30.253Z,280
2018-07-22T09:27:10.793Z,275
2018-07-22T09:27:51.282Z,275
2018-07-22T09:28:31.851Z,270
2018-07-22T09:29:12.871Z,265
2018-07-22T09:29:53.378Z,265
2018-07-22T09:30:34.262Z,265
2018-07-22T09:33:14.497Z,270
2018-07-22T09:33:55.080Z,275
2018-07-22T09:34:35.564Z,275
2018-07-22T09:35:20.432Z,280
2018-07-22T09:36:03.257Z,280
2018-07-22T09:36:45.120Z,285
2018-07-22T09:37:26.061Z,285
2018-07-22T09:38:07.876Z,290
2018-07-22T09:38:48.136Z,295
2018-07-22T09:39:29.367Z,295
2018-07-22T09:40:09.913Z,295
2018-07-22T09:41:08.198Z,295
2018-07-22T09:41:54.837Z,290
2018-07-22T09:42:35.258Z,290
2018-07-22T09:43:15.767Z,280
2018-07-22T09:43:57.373Z,280
2018-07-22T09:44:37.927Z,285
2018-07-22T09:45:18.362Z,275
2018-07-22T09:45:59.526Z,265
2018-07-22T09:46:40.097Z,260
2018-07-22T09:47:21.035Z,260
2018-07-22T09:48:01.782Z,255
2018-07-22T09:48:42.458Z,255
2018-07-22T09:49:23.217Z,255
2018-07-22T09:50:03.735Z,250
2018-07-22T09:52:32.509Z,240
2018-07-22T09:54:50.893Z,245
2018-07-22T09:55:31.422Z,240
2018-07-22T09:56:14.836Z,240
2018-07-22T09:56:55.401Z,235
2018-07-22T09:57:35.810Z,235
2018-07-22T09:58:16.318Z,235
2018-07-22T09:58:57.014Z,235
2018-07-22T09:59:40.448Z,245
2018-07-22T10:00:20.916Z,250
2018-07-22T10:01:01.474Z,255
2018-07-22T10:01:41.974Z,260
2018-07-22T10:02:22.465Z,260
2018-07-22T10:03:03.174Z,265
2018-07-22T10:03:43.766Z,265
2018-07-22T10:04:24.425Z,270
2018-07-22T10:05:04.948Z,275
2018-07-22T10:05:45.454Z,280
2018-07-22T10:06:25.945Z,285
2018-07-22T10:07:06.520Z,285
2018-07-22T10:09:51.600Z,265
2018-07-22T10:10:32.138Z,255
2018-07-22T10:11:12.747Z,250
2018-07-22T10:11:53.373Z,240
2018-07-22T10:12:33.871Z,240
2018-07-22T10:13:14.332Z,240
2018-07-22T10:13:54.894Z,240
2018-07-22T10:14:35.546Z,240
2018-07-22T10:15:15.997Z,230